Time;durP1;ratioP1;P1;durP2;ratioP2;P2;SDS_P1;SDS_P2;PMS_P1;PMS_P2;Temp;Humidity;BMP_temperature;BMP_pressure;BME280_temperature;BME280_humidity;BME280_pressure;Samples;Min_cycle;Max_cycle;Signal;HPM_P1;HPM_P2
2021/03/28 05:09:37;;;;;;;12.03;4.13;;;10.10;99.90;;;;;;6046780;23;20218;-93
2021/03/28 10:05:32;;;;;;;12.30;2.17;;;13.00;87.50;;;;;;1956504;23;20499;-85
2021/03/28 10:08:15;;;;;;;10.37;2.40;;;13.20;87.00;;;;;;4973159;28;20222;-90
2021/03/28 10:10:52;;;;;;;5.50;1.80;;;13.30;86.50;;;;;;4963723;28;20195;-90
2021/03/28 10:13:56;;;;;;;10.53;1.77;;;13.40;86.00;;;;;;4972823;28;20194;-89
2021/03/28 10:16:46;;;;;;;10.63;2.33;;;13.40;86.60;;;;;;4953252;28;20237;-89
2021/03/28 10:19:21;;;;;;;6.80;2.43;;;13.30;87.30;;;;;;4959080;28;20210;-89
2021/03/28 10:21:55;;;;;;;11.50;2.43;;;13.20;88.60;;;;;;4963750;28;20182;-90
2021/03/28 10:24:33;;;;;;;8.83;2.37;;;13.00;89.00;;;;;;4962769;28;20193;-90
2021/03/28 10:27:27;;;;;;;13.33;2.17;;;13.10;89.00;;;;;;4972329;28;20217;-91
2021/03/28 10:30:17;;;;;;;8.77;2.73;;;13.30;89.00;;;;;;4975948;28;20187;-91
2021/03/28 10:33:20;;;;;;;8.07;2.13;;;13.50;87.70;;;;;;4956911;28;20191;-91
2021/03/28 10:35:54;;;;;;;7.70;2.13;;;13.40;87.70;;;;;;4956046;29;20205;-90
2021/03/28 10:39:12;;;;;;;10.17;2.43;;;13.30;87.80;;;;;;4954545;29;20190;-91
2021/03/28 10:42:17;;;;;;;8.30;2.50;;;13.20;88.10;;;;;;4957212;28;20198;-89
2021/03/28 10:45:11;;;;;;;9.53;2.23;;;13.30;87.40;;;;;;4952376;29;20183;-91
2021/03/28 10:47:37;;;;;;;8.60;2.20;;;13.40;87.00;;;;;;4951869;29;20242;-88
2021/03/28 10:50:15;;;;;;;6.00;2.00;;;13.20;87.40;;;;;;4961949;28;20197;-89
2021/03/28 10:53:23;;;;;;;7.83;2.13;;;13.00;88.60;;;;;;4975453;28;20211;-89
2021/03/28 10:56:07;;;;;;;12.07;2.30;;;13.30;88.20;;;;;;4935611;28;20179;-89
2021/03/28 10:59:11;;;;;;;10.97;2.47;;;13.60;88.00;;;;;;4963111;28;20290;-89
2021/03/28 11:02:07;;;;;;;10.37;2.10;;;14.00;86.20;;;;;;4942806;29;20222;-89
2021/03/28 11:04:44;;;;;;;7.80;2.03;;;14.60;85.30;;;;;;4957145;28;20279;-89
2021/03/28 11:07:47;;;;;;;8.77;2.07;;;15.00;83.20;;;;;;4942686;29;20234;-90
2021/03/28 11:10:25;;;;;;;7.23;2.53;;;15.30;81.80;;;;;;4954604;28;20185;-91
2021/03/28 11:13:47;;;;;;;5.53;2.13;;;15.90;80.50;;;;;;4966085;28;20191;-90
2021/03/28 11:16:52;;;;;;;7.03;1.90;;;15.30;80.80;;;;;;4914751;28;20209;-90
2021/03/28 11:19:45;;;;;;;5.60;2.13;;;15.40;80.80;;;;;;4963423;28;20777;-91
2021/03/28 11:22:20;;;;;;;8.87;2.20;;;15.20;81.40;;;;;;4967456;28;20223;-91
2021/03/28 11:24:54;;;;;;;9.60;2.40;;;15.00;82.60;;;;;;4965433;28;20197;-91
2021/03/28 11:28:05;;;;;;;9.57;2.60;;;15.00;82.30;;;;;;4979450;28;20241;-91
2021/03/28 11:30:40;;;;;;;10.40;2.23;;;15.50;81.00;;;;;;4962675;28;20187;-91
2021/03/28 11:33:09;;;;;;;7.87;2.23;;;16.00;79.50;;;;;;4963398;28;20178;-90
2021/03/28 11:35:53;;;;;;;9.47;2.50;;;16.40;77.40;;;;;;4963079;28;20205;-91
2021/03/28 11:38:19;;;;;;;10.37;3.07;;;16.80;75.80;;;;;;4962886;28;20189;-91
2021/03/28 11:41:12;;;;;;;8.23;2.43;;;16.90;75.50;;;;;;4955074;29;20270;-90
2021/03/28 11:43:52;;;;;;;9.97;3.20;;;17.10;75.10;;;;;;4931266;29;20216;-90
2021/03/28 11:46:30;;;;;;;15.10;6.23;;;16.80;75.40;;;;;;4946712;29;20209;-91
2021/03/28 11:48:58;;;;;;;7.83;3.03;;;16.80;75.10;;;;;;4948506;29;20189;-91
2021/03/28 11:51:53;;;;;;;6.93;2.60;;;16.70;74.80;;;;;;4981997;28;20280;-91
2021/03/28 11:54:23;;;;;;;9.47;2.30;;;16.60;74.50;;;;;;4982631;28;20199;-91
2021/03/28 11:57:05;;;;;;;10.80;2.27;;;16.30;74.70;;;;;;4983628;28;20165;-91
2021/03/28 11:59:58;;;;;;;11.43;2.60;;;16.10;75.10;;;;;;4966753;28;20191;-92
2021/03/28 12:02:31;;;;;;;8.37;2.60;;;16.10;75.80;;;;;;4953285;28;20190;-91
2021/03/28 12:04:59;;;;;;;8.93;2.40;;;15.90;77.10;;;;;;4960280;28;20284;-91
2021/03/28 12:08:02;;;;;;;10.97;3.00;;;15.60;77.90;;;;;;4961827;28;20235;-90
2021/03/28 12:10:37;;;;;;;7.60;2.73;;;15.50;78.30;;;;;;4973126;28;20187;-91
2021/03/28 12:13:48;;;;;;;8.23;2.50;;;15.40;79.10;;;;;;4968570;28;20188;-91
2021/03/28 12:16:15;;;;;;;7.73;2.60;;;15.30;79.60;;;;;;4921388;29;20282;-91
2021/03/28 12:18:56;;;;;;;10.93;4.00;;;15.60;78.90;;;;;;4954062;28;20194;-91
2021/03/28 12:21:49;;;;;;;8.90;3.57;;;15.40;79.40;;;;;;4964122;28;20737;-91
2021/03/28 12:24:23;;;;;;;11.83;3.57;;;15.40;80.00;;;;;;4959122;28;20175;-92
2021/03/28 12:26:53;;;;;;;8.53;2.87;;;15.60;80.30;;;;;;4958192;28;20285;-91
2021/03/28 12:29:22;;;;;;;12.93;7.87;;;15.50;80.70;;;;;;4961617;28;20179;-90
2021/03/28 12:31:50;;;;;;;6.93;2.93;;;15.10;81.60;;;;;;4964011;28;20186;-90
2021/03/28 12:34:36;;;;;;;17.30;4.13;;;15.10;81.70;;;;;;4965961;28;20185;-90
2021/03/28 12:37:16;;;;;;;14.17;5.93;;;15.20;81.20;;;;;;4965728;28;20196;-90
2021/03/28 12:39:42;;;;;;;10.87;3.27;;;15.40;80.60;;;;;;4966339;28;20643;-89
2021/03/28 12:42:25;;;;;;;12.00;4.10;;;15.90;79.70;;;;;;4970210;28;20639;-90
2021/03/28 12:44:54;;;;;;;9.47;2.90;;;16.70;77.90;;;;;;4928868;29;20195;-90
2021/03/28 12:47:26;;;;;;;8.77;3.43;;;17.50;74.50;;;;;;4911522;29;20272;-90
2021/03/28 12:50:01;;;;;;;11.60;4.10;;;17.40;74.60;;;;;;4908999;29;20274;-90
2021/03/28 12:52:47;;;;;;;10.83;4.63;;;17.60;74.20;;;;;;4906896;29;20218;-91
2021/03/28 12:55:19;;;;;;;14.70;5.83;;;17.90;73.60;;;;;;4926983;29;20670;-91
2021/03/28 12:58:11;;;;;;;9.63;3.10;;;17.70;73.30;;;;;;4904826;29;20187;-91
2021/03/28 13:01:14;;;;;;;11.73;4.70;;;17.10;74.20;;;;;;4910096;29;20709;-92
2021/03/28 13:03:45;;;;;;;8.90;3.30;;;17.50;73.20;;;;;;4917883;29;20202;-89
2021/03/28 13:06:46;;;;;;;7.47;3.57;;;18.00;71.90;;;;;;4927228;29;20264;-92
2021/03/28 13:09:15;;;;;;;7.20;2.97;;;18.10;71.10;;;;;;4919370;29;20188;-92
2021/03/28 13:11:49;;;;;;;9.40;3.10;;;18.50;70.50;;;;;;4932398;29;20197;-89
2021/03/28 13:14:29;;;;;;;7.47;2.73;;;18.80;69.00;;;;;;4944224;29;20180;-92
2021/03/28 13:16:59;;;;;;;7.27;2.87;;;19.00;68.80;;;;;;4975772;28;20194;-90
2021/03/28 13:19:29;;;;;;;8.57;2.30;;;19.50;67.30;;;;;;4929971;29;20260;-89
2021/03/28 13:22:03;;;;;;;6.13;2.80;;;19.60;67.10;;;;;;4950010;29;20190;-89
2021/03/28 13:24:32;;;;;;;9.00;2.70;;;19.10;68.00;;;;;;4949626;29;20198;-89
2021/03/28 13:27:13;;;;;;;9.03;3.00;;;18.20;70.10;;;;;;4951696;29;20221;-90
2021/03/28 13:29:56;;;;;;;8.53;2.73;;;18.20;70.70;;;;;;4953102;29;20186;-89
2021/03/28 13:32:52;;;;;;;8.07;3.10;;;18.00;70.90;;;;;;4959834;28;20191;-90
2021/03/28 13:35:32;;;;;;;8.20;3.60;;;18.10;70.50;;;;;;4980451;28;20194;-90
2021/03/28 13:38:12;;;;;;;9.80;2.83;;;18.30;70.30;;;;;;4970998;28;20200;-91
2021/03/28 13:41:22;;;;;;;9.77;2.73;;;19.20;68.00;;;;;;4968840;28;20179;-91
2021/03/28 13:43:48;;;;;;;8.33;3.83;;;20.00;65.70;;;;;;4958469;28;20178;-91
2021/03/28 13:46:17;;;;;;;8.73;2.50;;;20.30;65.40;;;;;;4958078;29;20190;-91
2021/03/28 13:48:45;;;;;;;8.53;3.27;;;21.00;63.40;;;;;;4952525;29;20195;-90
2021/03/28 13:51:19;;;;;;;11.43;3.03;;;21.00;63.10;;;;;;4975737;28;20174;-91
2021/03/28 13:53:54;;;;;;;8.83;2.50;;;20.90;62.40;;;;;;4962230;28;20216;-92
2021/03/28 13:56:30;;;;;;;6.53;2.23;;;20.60;62.40;;;;;;4981642;28;20188;-91
2021/03/28 13:59:12;;;;;;;9.97;2.87;;;20.40;62.40;;;;;;4967723;28;20189;-91
2021/03/28 14:01:40;;;;;;;8.73;2.20;;;20.10;62.90;;;;;;4937071;29;20196;-91
2021/03/28 14:04:37;;;;;;;8.00;3.70;;;20.20;62.50;;;;;;4949566;28;20663;-91
2021/03/28 14:07:16;;;;;;;9.13;3.63;;;20.60;61.60;;;;;;4958362;28;20219;-91
2021/03/28 14:10:05;;;;;;;5.80;2.20;;;20.80;60.70;;;;;;4967362;28;20243;-91
2021/03/28 14:13:01;;;;;;;9.77;3.20;;;20.50;60.80;;;;;;4967365;28;20188;-91
2021/03/28 14:15:41;;;;;;;6.20;2.37;;;20.30;62.00;;;;;;4968386;28;20196;-91
2021/03/28 14:18:15;;;;;;;10.77;3.00;;;20.50;61.60;;;;;;4970854;28;20212;-91
2021/03/28 14:20:46;;;;;;;8.47;2.80;;;20.50;60.80;;;;;;4958791;28;20186;-90
2021/03/28 14:23:19;;;;;;;9.77;2.83;;;20.40;61.00;;;;;;4968427;28;20240;-91
2021/03/28 14:26:07;;;;;;;8.40;2.83;;;20.20;61.50;;;;;;4950350;29;20190;-90
2021/03/28 14:28:41;;;;;;;9.17;3.67;;;20.10;61.20;;;;;;4949363;29;20196;-91
2021/03/28 14:31:16;;;;;;;11.37;3.47;;;20.00;61.80;;;;;;4957611;28;20205;-90
2021/03/28 14:34:04;;;;;;;11.23;3.50;;;19.80;62.10;;;;;;4951979;29;20179;-90
2021/03/28 14:36:51;;;;;;;10.33;3.50;;;20.40;61.20;;;;;;4960764;28;20220;-91
2021/03/28 14:39:44;;;;;;;9.53;4.10;;;21.00;59.70;;;;;;4960309;28;20195;-91
2021/03/28 14:42:17;;;;;;;7.70;2.90;;;21.20;59.40;;;;;;4970104;28;20659;-91
2021/03/28 14:45:31;;;;;;;14.80;6.80;;;21.90;58.30;;;;;;4964656;28;20198;-90
2021/03/28 14:48:12;;;;;;;9.07;3.03;;;22.70;57.00;;;;;;4959174;28;20231;-91
2021/03/28 14:50:45;;;;;;;6.87;2.30;;;22.50;56.00;;;;;;4972225;28;20189;-90
2021/03/28 14:53:48;;;;;;;10.80;3.30;;;21.70;57.00;;;;;;4955935;29;20626;-90
2021/03/28 14:56:45;;;;;;;10.80;2.90;;;21.70;56.80;;;;;;4944336;28;20191;-91
2021/03/28 14:59:46;;;;;;;9.60;2.70;;;21.20;57.20;;;;;;4942171;29;20193;-90
2021/03/28 15:02:33;;;;;;;9.70;3.33;;;20.90;57.90;;;;;;4943297;28;20180;-90
2021/03/28 15:05:53;;;;;;;8.23;2.90;;;20.70;57.70;;;;;;4956658;28;20256;-91
2021/03/28 15:08:33;;;;;;;7.90;3.20;;;20.90;57.70;;;;;;4858331;29;20277;-90
2021/03/28 15:11:04;;;;;;;7.57;3.30;;;20.60;58.30;;;;;;4941014;29;20208;-90
2021/03/28 15:13:50;;;;;;;7.03;2.80;;;20.80;58.40;;;;;;4940824;29;20248;-91
2021/03/28 15:16:42;;;;;;;6.57;2.90;;;20.90;57.90;;;;;;4941156;29;20230;-91
2021/03/28 15:19:14;;;;;;;7.63;2.83;;;21.40;56.80;;;;;;4933598;28;20663;-90
2021/03/28 15:22:19;;;;;;;8.87;3.33;;;21.10;57.10;;;;;;4946667;28;20192;-90
2021/03/28 15:24:54;;;;;;;12.10;3.13;;;21.10;57.40;;;;;;4924423;28;20182;-91
2021/03/28 15:27:42;;;;;;;14.07;3.50;;;21.00;57.40;;;;;;4964175;28;20694;-90
2021/03/28 15:30:32;;;;;;;5.83;2.67;;;20.50;58.40;;;;;;4948194;28;20180;-90
2021/03/28 15:33:19;;;;;;;9.97;3.60;;;20.50;58.60;;;;;;4952635;28;20275;-91
2021/03/28 15:36:00;;;;;;;9.57;3.13;;;20.40;58.90;;;;;;4948656;28;20192;-90
2021/03/28 15:38:49;;;;;;;12.00;3.53;;;19.80;59.70;;;;;;4950665;28;20293;-90
2021/03/28 15:41:31;;;;;;;10.63;3.20;;;19.50;60.40;;;;;;4955680;28;20203;-90
2021/03/28 15:44:02;;;;;;;9.23;3.50;;;19.40;61.20;;;;;;4959126;28;20218;-91
2021/03/28 15:46:51;;;;;;;8.47;3.30;;;19.40;60.90;;;;;;4957851;28;20210;-91
2021/03/28 15:49:23;;;;;;;11.30;3.07;;;19.30;61.40;;;;;;4958202;28;20182;-92
2021/03/28 15:52:28;;;;;;;9.10;3.23;;;19.00;62.00;;;;;;4958144;28;20194;-90
2021/03/28 15:55:14;;;;;;;11.27;3.43;;;19.10;61.60;;;;;;4950605;28;20277;-90
2021/03/28 15:58:04;;;;;;;12.43;3.20;;;19.00;61.80;;;;;;4956070;28;20273;-90
2021/03/28 16:29:06;;;;;;;9.97;3.73;;;19.00;62.30;;;;;;5269941;23;20248;-91
2021/03/28 16:31:43;;;;;;;11.63;3.37;;;18.50;63.80;;;;;;4953124;28;20333;-89
2021/03/28 16:34:43;;;;;;;9.33;3.83;;;18.40;63.90;;;;;;4958261;28;20189;-89
2021/03/28 16:37:45;;;;;;;7.77;3.50;;;18.20;64.60;;;;;;4969018;28;20186;-89
2021/03/28 16:40:27;;;;;;;15.30;4.13;;;18.00;64.90;;;;;;4970056;28;20217;-88
2021/03/28 16:43:20;;;;;;;13.93;4.10;;;17.50;66.40;;;;;;4968933;28;20195;-88
2021/03/28 16:46:05;;;;;;;11.50;3.53;;;17.20;67.20;;;;;;4961300;28;20279;-87
2021/03/28 16:49:04;;;;;;;9.00;3.40;;;17.40;66.90;;;;;;4946724;28;20195;-88
2021/03/28 16:51:36;;;;;;;9.07;3.60;;;17.50;66.80;;;;;;4944298;28;20287;-88
2021/03/28 16:54:27;;;;;;;12.17;3.60;;;17.50;67.10;;;;;;4961967;28;20193;-89
2021/03/28 16:57:02;;;;;;;10.80;3.77;;;17.40;66.70;;;;;;4961230;28;20181;-88
2021/03/28 16:59:37;;;;;;;10.37;4.00;;;17.10;67.80;;;;;;4952230;28;20285;-88
2021/03/28 17:02:23;;;;;;;10.63;4.23;;;17.00;68.20;;;;;;4961165;28;20171;-88
2021/03/28 17:04:55;;;;;;;9.10;3.53;;;16.90;68.40;;;;;;4957708;28;20191;-87
2021/03/28 17:07:22;;;;;;;13.27;4.20;;;16.50;69.60;;;;;;4961116;28;20579;-89
2021/03/28 17:10:02;;;;;;;12.00;4.43;;;16.50;71.00;;;;;;4962010;28;20191;-88
2021/03/28 17:12:33;;;;;;;13.33;4.13;;;16.70;69.80;;;;;;4959549;28;20585;-88
2021/03/28 17:15:18;;;;;;;10.30;4.33;;;16.80;69.40;;;;;;4949329;28;20217;-89
2021/03/28 17:18:01;;;;;;;9.60;4.23;;;16.50;70.00;;;;;;4934897;29;20221;-88
2021/03/28 17:20:50;;;;;;;9.33;4.10;;;16.60;70.20;;;;;;4939224;29;20561;-89
2021/03/28 17:23:57;;;;;;;9.30;4.03;;;16.50;70.30;;;;;;4951936;29;20206;-88
2021/03/28 17:26:23;;;;;;;20.07;10.13;;;16.30;70.90;;;;;;4894844;29;20205;-89
2021/03/28 17:28:50;;;;;;;12.10;6.60;;;16.50;70.90;;;;;;4952300;28;20222;-90
2021/03/28 17:31:18;;;;;;;10.63;4.47;;;16.80;69.90;;;;;;4937842;29;20668;-88
2021/03/28 17:33:43;;;;;;;11.07;4.83;;;16.60;70.10;;;;;;4952578;29;20221;-90
2021/03/28 17:36:15;;;;;;;12.67;3.80;;;16.40;71.10;;;;;;4925312;29;20207;-88
2021/03/28 17:38:50;;;;;;;12.30;4.50;;;16.50;71.00;;;;;;4952340;28;20369;-88
2021/03/28 17:41:47;;;;;;;11.00;4.30;;;16.40;71.00;;;;;;4955857;28;20344;-89
2021/03/28 17:44:22;;;;;;;8.40;3.60;;;16.30;71.10;;;;;;4954639;29;20675;-89
2021/03/28 17:47:13;;;;;;;13.53;4.43;;;16.10;71.40;;;;;;4950791;28;20561;-91
2021/03/28 17:49:41;;;;;;;12.70;4.33;;;16.00;72.30;;;;;;4941278;29;20187;-91
2021/03/28 17:52:15;;;;;;;10.03;4.03;;;15.90;72.10;;;;;;4957693;29;20195;-92
2021/03/28 17:54:51;;;;;;;8.27;4.20;;;15.80;72.80;;;;;;4958094;29;20227;-91
2021/03/28 17:57:26;;;;;;;14.40;6.30;;;15.80;72.90;;;;;;4957255;28;20700;-91
2021/03/28 17:59:53;;;;;;;13.97;5.57;;;16.00;72.80;;;;;;4940129;29;20627;-94
2021/03/28 18:02:30;;;;;;;15.80;8.23;;;16.00;72.20;;;;;;4943245;29;20713;-91
2021/03/28 18:05:06;;;;;;;25.53;20.67;;;16.00;72.20;;;;;;4952026;29;20188;-90
2021/03/28 18:07:35;;;;;;;16.17;5.47;;;15.90;72.50;;;;;;4952129;29;20220;-89
2021/03/28 18:10:05;;;;;;;9.57;5.23;;;15.90;72.50;;;;;;4948709;29;20251;-90
2021/03/28 18:12:31;;;;;;;10.73;4.70;;;15.80;72.80;;;;;;4935060;29;20189;-89
2021/03/28 18:15:22;;;;;;;19.80;11.23;;;15.70;72.90;;;;;;4950119;29;20217;-90
2021/03/28 18:17:49;;;;;;;19.50;8.00;;;15.60;73.00;;;;;;4942684;29;20206;-89
2021/03/28 18:20:32;;;;;;;22.63;14.03;;;15.60;73.40;;;;;;4941861;29;20561;-95
2021/03/28 18:23:28;;;;;;;16.17;10.20;;;15.60;73.30;;;;;;4945826;29;20191;-91
2021/03/28 18:25:59;;;;;;;12.47;7.10;;;15.60;73.20;;;;;;4932463;29;20180;-91
2021/03/28 18:28:24;;;;;;;12.80;7.20;;;15.50;73.50;;;;;;4941499;29;20220;-89
2021/03/28 18:31:00;;;;;;;18.63;11.50;;;15.30;74.30;;;;;;4939923;29;20192;-95
2021/03/28 18:33:31;;;;;;;14.27;5.50;;;15.20;74.60;;;;;;4941520;29;20207;-91
2021/03/28 18:36:24;;;;;;;11.90;6.70;;;15.10;74.60;;;;;;4942362;29;20720;-90
2021/03/28 18:38:52;;;;;;;63.63;33.20;;;15.00;75.00;;;;;;4940879;29;20208;-91
2021/03/28 18:41:30;;;;;;;68.07;29.90;;;15.10;74.90;;;;;;4951581;29;20180;-91
2021/03/28 18:44:29;;;;;;;19.87;10.37;;;15.10;74.60;;;;;;4955287;29;20655;-91
2021/03/28 18:47:01;;;;;;;12.70;5.47;;;15.20;74.60;;;;;;4952869;29;20235;-91
2021/03/28 18:49:31;;;;;;;14.93;6.33;;;15.10;74.50;;;;;;4932827;29;20196;-92
2021/03/28 18:52:15;;;;;;;17.27;9.13;;;15.00;74.70;;;;;;4930897;29;20502;-92
2021/03/28 18:54:43;;;;;;;10.33;4.37;;;15.00;74.50;;;;;;4956543;29;20192;-91
2021/03/28 18:57:11;;;;;;;40.23;19.67;;;15.00;74.40;;;;;;4945365;28;20216;-92
2021/03/28 19:07:21;;;;;;;8.70;4.20;;;15.00;74.60;;;;;;4954802;29;20730;-92
2021/03/28 19:10:34;;;;;;;;;;;;;;;;;;;;;
2021/03/28 19:13:59;;;;;;;;;;;;;;;;;;;;;
2021/03/28 19:17:21;;;;;;;;;;;;;;;;;;;;;
2021/03/28 19:24:29;;;;;;;;;;;;;;;;;;;;;
2021/03/28 19:27:46;;;;;;;;;;;;;;;;;;;;;
2021/03/28 19:31:13;;;;;;;10.03;5.03;;;14.80;75.40;;;;;;4972696;28;20209;-92
2021/03/28 19:37:34;;;;;;;;;;;;;;;;;;;;;
2021/03/28 19:40:36;;;;;;;;;;;;;;;;;;;;;
2021/03/28 19:43:28;;;;;;;20.17;8.23;;;14.90;75.50;;;;;;4871020;29;20189;-93
2021/03/28 19:49:05;;;;;;;14.30;6.67;;;15.00;75.40;;;;;;4876291;29;20190;-93
2021/03/28 19:51:45;;;;;;;21.27;7.17;;;15.10;75.10;;;;;;4871208;29;20254;-92
2021/03/28 19:54:52;;;;;;;16.57;7.70;;;15.10;75.30;;;;;;4869676;29;20200;-92
2021/03/28 19:57:45;;;;;;;13.90;7.07;;;14.90;75.70;;;;;;4861185;29;20166;-92
2021/03/28 20:00:49;;;;;;;20.00;7.10;;;14.80;76.30;;;;;;4863251;29;20218;-92
2021/03/28 20:03:44;;;;;;;19.13;6.90;;;14.80;76.50;;;;;;4864361;29;20197;-91
2021/03/28 20:06:29;;;;;;;19.23;10.10;;;14.60;77.10;;;;;;4879606;29;20253;-92
2021/03/28 20:09:02;;;;;;;33.40;22.33;;;14.70;77.10;;;;;;4864191;29;20194;-91
2021/03/28 20:11:41;;;;;;;21.63;11.30;;;14.70;77.10;;;;;;4862792;29;20659;-92
2021/03/28 20:14:38;;;;;;;13.23;7.13;;;14.80;77.00;;;;;;4920214;29;20208;-92
2021/03/28 20:17:19;;;;;;;18.70;8.67;;;14.80;77.10;;;;;;4938922;29;20684;-92
2021/03/28 20:20:19;;;;;;;19.73;11.93;;;14.70;77.00;;;;;;4938861;29;20195;-92
2021/03/28 20:23:38;;;;;;;18.97;11.17;;;14.70;77.40;;;;;;4939657;29;20273;-92
2021/03/28 20:26:53;;;;;;;22.50;12.10;;;14.50;77.80;;;;;;4909178;29;20194;-92
2021/03/28 20:30:01;;;;;;;12.03;7.03;;;14.60;78.10;;;;;;4947898;28;20199;-92
2021/03/28 20:32:35;;;;;;;17.50;5.40;;;14.60;78.20;;;;;;4881929;29;20192;-92
2021/03/28 20:35:51;;;;;;;;;;;;;;;;;;;;;
2021/03/28 20:38:27;;;;;;;13.33;5.60;;;14.40;78.60;;;;;;4899239;29;20197;-93
2021/03/28 20:41:35;;;;;;;18.47;10.30;;;14.40;79.00;;;;;;4909032;29;20220;-91
2021/03/28 20:44:38;;;;;;;17.90;8.37;;;14.40;79.20;;;;;;4935702;29;20186;-92
2021/03/28 20:47:19;;;;;;;;;;;;;;;;;;;;;
2021/03/28 20:52:42;;;;;;;19.97;9.03;;;14.50;79.30;;;;;;4958531;29;20186;-91
2021/03/28 20:55:27;;;;;;;16.17;6.57;;;14.50;79.40;;;;;;4958228;29;20183;-91
2021/03/28 20:58:00;;;;;;;18.43;7.40;;;14.30;80.00;;;;;;4941890;29;20595;-92
2021/03/28 21:00:59;;;;;;;17.87;5.80;;;14.40;80.20;;;;;;4955823;29;20659;-93
2021/03/28 21:03:24;;;;;;;18.43;5.97;;;14.40;80.00;;;;;;4947464;29;20183;-92
2021/03/28 21:06:07;;;;;;;13.80;5.77;;;14.20;80.20;;;;;;4930233;29;20175;-92
2021/03/28 21:08:39;;;;;;;17.40;6.53;;;14.20;80.60;;;;;;4932889;29;20215;-91
2021/03/28 21:11:09;;;;;;;16.00;8.30;;;14.20;80.40;;;;;;4933332;29;20180;-91
2021/03/28 21:16:53;;;;;;;16.13;6.33;;;14.30;80.20;;;;;;4942836;29;20192;-93
2021/03/28 21:22:08;;;;;;;16.77;5.90;;;14.30;80.20;;;;;;5014711;23;20239;-91
2021/03/28 21:24:57;;;;;;;12.50;6.03;;;14.20;80.00;;;;;;4939701;29;20286;-92
2021/03/28 21:27:24;;;;;;;14.73;6.30;;;14.30;80.30;;;;;;4936735;29;20215;-91
2021/03/28 21:30:11;;;;;;;22.27;6.30;;;14.20;80.40;;;;;;4962504;28;20175;-91
2021/03/28 21:32:44;;;;;;;16.27;6.37;;;14.20;80.30;;;;;;4942821;28;20187;-91
2021/03/28 21:35:13;;;;;;;17.63;6.00;;;14.10;80.90;;;;;;4942493;29;20198;-92
2021/03/28 21:37:48;;;;;;;18.43;6.53;;;14.10;81.00;;;;;;4945588;29;20603;-92
2021/03/28 21:40:25;;;;;;;18.53;6.63;;;14.10;81.00;;;;;;4945438;28;20190;-92
2021/03/28 21:43:00;;;;;;;19.87;6.73;;;14.10;81.10;;;;;;4944428;29;20198;-91
2021/03/28 21:45:29;;;;;;;17.70;6.10;;;14.00;81.40;;;;;;4944408;28;20624;-92
2021/03/28 21:48:06;;;;;;;14.27;5.37;;;13.90;81.70;;;;;;4945026;29;20231;-92
2021/03/28 21:50:32;;;;;;;18.60;6.03;;;13.80;81.70;;;;;;4943778;28;20187;-92
2021/03/28 21:52:59;;;;;;;14.30;6.67;;;13.80;81.70;;;;;;4943177;28;20191;-91
2021/03/28 21:55:28;;;;;;;14.77;5.77;;;14.10;81.20;;;;;;4956555;29;20195;-96
2021/03/28 21:58:01;;;;;;;14.73;5.33;;;14.10;81.00;;;;;;4947381;29;20563;-94
2021/03/28 22:00:44;;;;;;;18.50;5.27;;;13.90;80.90;;;;;;4946522;29;20184;-92
2021/03/28 22:03:25;;;;;;;15.70;6.73;;;14.00;80.80;;;;;;4945097;29;20183;-93
2021/03/28 22:06:03;;;;;;;15.67;5.80;;;13.90;81.30;;;;;;4945147;29;20191;-93
2021/03/28 22:08:39;;;;;;;16.37;6.23;;;14.00;80.90;;;;;;4961379;29;20219;-92
2021/03/28 22:11:16;;;;;;;19.53;5.20;;;14.10;80.30;;;;;;4945959;29;20246;-92
2021/03/28 22:13:44;;;;;;;14.10;7.50;;;13.90;80.80;;;;;;4942846;28;20221;-92
2021/03/28 22:16:15;;;;;;;15.60;6.40;;;13.70;81.30;;;;;;4942811;29;20184;-92
2021/03/28 22:18:42;;;;;;;18.53;6.73;;;13.80;81.10;;;;;;4940689;29;20568;-91
2021/03/28 22:21:11;;;;;;;13.27;5.37;;;13.80;80.90;;;;;;4943546;29;20199;-92
2021/03/28 22:23:38;;;;;;;11.10;4.87;;;13.90;80.70;;;;;;4942697;29;20195;-91
2021/03/28 22:26:07;;;;;;;14.87;6.43;;;13.90;80.50;;;;;;4946397;29;20183;-91
2021/03/28 22:28:36;;;;;;;18.83;11.07;;;13.70;80.60;;;;;;4934845;29;20273;-92
2021/03/28 22:31:03;;;;;;;17.67;7.73;;;13.70;80.60;;;;;;4925823;29;20214;-92
2021/03/28 22:33:29;;;;;;;14.40;7.27;;;13.70;80.80;;;;;;4928510;29;20254;-91
2021/03/28 22:35:59;;;;;;;25.53;14.40;;;13.70;80.60;;;;;;4943065;29;20180;-91
2021/03/28 22:38:26;;;;;;;29.47;16.13;;;13.70;80.60;;;;;;4940716;29;20241;-92
2021/03/28 22:40:54;;;;;;;31.63;19.47;;;13.80;80.30;;;;;;4939608;29;20294;-91
2021/03/28 22:43:24;;;;;;;16.67;7.60;;;13.80;80.20;;;;;;4940883;29;20195;-91
2021/03/28 22:45:50;;;;;;;40.00;22.80;;;13.60;80.40;;;;;;4933807;29;20183;-91
2021/03/28 22:48:24;;;;;;;38.20;21.70;;;13.70;80.20;;;;;;4941385;29;20210;-91
2021/03/28 22:50:50;;;;;;;13.13;4.33;;;13.60;80.10;;;;;;4944863;29;20192;-92
2021/03/28 22:53:23;;;;;;;12.73;4.37;;;13.60;80.00;;;;;;4952272;29;20198;-91
2021/03/28 22:55:51;;;;;;;16.00;6.23;;;13.60;80.20;;;;;;4954212;29;20172;-92
2021/03/28 22:58:22;;;;;;;18.90;9.80;;;13.60;80.20;;;;;;4954608;29;20156;-91
2021/03/28 23:01:04;;;;;;;24.33;11.93;;;13.50;80.10;;;;;;4944787;29;20202;-92
2021/03/28 23:04:06;;;;;;;22.30;11.20;;;13.50;80.00;;;;;;4943368;28;20168;-93
2021/03/28 23:06:32;;;;;;;8.67;4.67;;;13.60;79.50;;;;;;4925256;29;20198;-91
2021/03/28 23:09:04;;;;;;;11.03;5.00;;;13.60;79.50;;;;;;4933049;29;20195;-91
2021/03/28 23:11:30;;;;;;;18.03;5.73;;;13.50;79.60;;;;;;4934341;29;20195;-92
2021/03/28 23:14:06;;;;;;;15.10;5.30;;;13.50;79.90;;;;;;4924401;29;20215;-91
2021/03/28 23:16:31;;;;;;;25.00;14.63;;;13.50;79.90;;;;;;4932993;29;20610;-91
2021/03/28 23:19:05;;;;;;;14.60;4.87;;;13.40;79.90;;;;;;4927140;29;20215;-90
2021/03/28 23:22:01;;;;;;;14.20;4.20;;;13.40;79.70;;;;;;4938210;29;20199;-93
2021/03/28 23:24:27;;;;;;;16.40;6.90;;;13.30;79.60;;;;;;4929381;29;20203;-92
2021/03/28 23:26:55;;;;;;;18.70;6.90;;;13.40;79.60;;;;;;4940359;29;20227;-91
2021/03/28 23:29:27;;;;;;;20.97;4.93;;;13.40;79.40;;;;;;4938272;29;20214;-93
2021/03/28 23:31:53;;;;;;;11.73;4.63;;;13.40;79.30;;;;;;4938957;29;20632;-94
2021/03/28 23:34:21;;;;;;;13.60;5.00;;;13.30;79.50;;;;;;4938164;29;20201;-91
2021/03/28 23:36:47;;;;;;;24.73;11.27;;;13.40;79.40;;;;;;4939709;29;20182;-91
2021/03/28 23:39:12;;;;;;;14.60;4.30;;;13.30;79.50;;;;;;4940152;29;20254;-90
2021/03/28 23:41:50;;;;;;;21.37;10.27;;;13.30;79.40;;;;;;4928609;29;20657;-91
2021/03/28 23:44:23;;;;;;;11.60;4.60;;;13.30;79.60;;;;;;4927228;29;20217;-92
2021/03/28 23:46:57;;;;;;;21.90;8.57;;;13.30;79.40;;;;;;4940592;29;20207;-91
2021/03/28 23:49:29;;;;;;;26.20;14.17;;;13.30;79.60;;;;;;4939860;28;20186;-91
2021/03/28 23:51:58;;;;;;;16.37;4.67;;;13.30;79.40;;;;;;4939221;29;20187;-91
2021/03/28 23:54:26;;;;;;;13.43;4.83;;;13.40;79.20;;;;;;4936052;29;20212;-91
2021/03/28 23:56:55;;;;;;;12.60;5.40;;;13.30;79.20;;;;;;4922362;29;20224;-90
2021/03/28 23:59:22;;;;;;;36.97;16.57;;;13.30;79.40;;;;;;4939667;29;20222;-91
